Terminal Aerodrome Forecast
Issued by NWS

Home | Current Version | Previous Version | Text Only | Print | Product List | Glossary On
Versions: 1 2 3 4 5 6 7 8 9 10 11 12 13 14 15 16
000
FTUS46 KPDT 262320
TAFDLS
TAF
KDLS 262320Z 2700/2724 32012G18KT P6SM SCT070
     FM270100 32010KT P6SM SCT200 BKN250
     FM270500 31008KT P6SM SCT100 SCT140
     FM271800 32013KT P6SM SCT100=

USA.gov is the U.S. government's official web portal to all federal, state and local government web resources and services.